This is the latest recevied weather packets stored in our database for station/object 9A3SWO. If no packets are shown the sender has not sent any weather packets the latest 10 day(s).
| Time | Temp. | Humidity | Pressure | Rain* | Wind** | Luminosity | Snow |
|---|---|---|---|---|---|---|---|
| 1787528284 | 24.44° C | 45% | 1020.7 hPa | - | - | - | - |
| 1787527684 | 24.44° C | 45% | 1021 hPa | - | - | - | - |
| 1787527084 | 24.44° C | 45% | 1020.9 hPa | - | - | - | - |
| 1787526484 | 24.44° C | 45% | 1021 hPa | - | - | - | - |
| 1787525883 | 24.44° C | 45% | 1021.1 hPa | - | - | - | - |
| 1787525283 | 24.44° C | 45% | 1021.1 hPa | - | - | - | - |
| 1787524683 | 24.44° C | 45% | 1021.2 hPa | - | - | - | - |
| 1787524083 | 24.44° C | 46% | 1021.1 hPa | - | - | - | - |
| 1787523483 | 24.44° C | 46% | 1021.1 hPa | - | - | - | - |
| 1787522884 | 24.44° C | 46% | 1021 hPa | - | - | - | - |
| 1787522283 | 24.44° C | 47% | 1021.1 hPa | - | - | - | - |
| 1787521684 | 24.44° C | 48% | 1021.2 hPa | - | - | - | - |
| 1787521083 | 23.89° C | 49% | 1021.2 hPa | - | - | - | - |
| 1787520483 | 23.33° C | 51% | 1021.3 hPa | - | - | - | - |
| 1787519883 | 21.67° C | 56% | 1021.4 hPa | - | - | - | - |
| 1787519282 | 20° C | 61% | 1021.6 hPa | - | - | - | - |
| 1787518683 | 20° C | 61% | 1021.5 hPa | - | - | - | - |
| 1787518082 | 20° C | 60% | 1021.4 hPa | - | - | - | - |
| 1787517484 | 20.56° C | 58% | 1021.4 hPa | - | - | - | - |
| 1787516884 | 20.56° C | 58% | 1021.4 hPa | - | - | - | - |
| 1787516282 | 21.11° C | 56% | 1021.4 hPa | - | - | - | - |
| 1787515682 | 21.11° C | 56% | 1021.5 hPa | - | - | - | - |
| 1787515083 | 21.11° C | 56% | 1021.5 hPa | - | - | - | - |
| 1787514483 | 21.67° C | 55% | 1021.4 hPa | - | - | - | - |
| 1787513882 | 21.11° C | 56% | 1021.4 hPa | - | - | - | - |
* Rain since midnight (hover to see other rain measurements)
** Current wind speed in m/s (hover to see current wind gust speed)